Time;durP1;ratioP1;P1;durP2;ratioP2;P2;SDS_P1;SDS_P2;PMS_P1;PMS_P2;Temp;Humidity;BMP_temperature;BMP_pressure;BME280_temperature;BME280_humidity;BME280_pressure;Samples;Min_cycle;Max_cycle;Signal;HPM_P1;HPM_P2
2022/11/24 00:00:33;;;;;;;22.00;10.20;;;7.40;99.90;;;;;;4954228;28;20412;-76
2022/11/24 00:02:59;;;;;;;19.50;9.85;;;7.40;99.90;;;;;;4971084;28;20463;-76
2022/11/24 00:05:25;;;;;;;19.08;9.40;;;7.30;99.90;;;;;;4970665;28;20462;-76
2022/11/24 00:07:51;;;;;;;23.60;9.70;;;7.40;99.90;;;;;;4971707;28;20404;-75
2022/11/24 00:10:17;;;;;;;21.92;9.90;;;7.20;99.90;;;;;;4970904;28;20427;-77
2022/11/24 00:12:43;;;;;;;19.83;8.98;;;7.30;99.90;;;;;;4971940;28;20416;-76
2022/11/24 00:15:09;;;;;;;18.42;8.73;;;7.20;99.90;;;;;;4971153;28;20430;-76
2022/11/24 00:17:34;;;;;;;23.63;9.57;;;7.30;99.90;;;;;;4981078;28;20430;-76
2022/11/24 00:20:00;;;;;;;17.83;8.00;;;7.20;99.90;;;;;;4990668;28;20406;-76
2022/11/24 00:22:26;;;;;;;22.23;9.37;;;7.30;99.90;;;;;;4989271;28;20419;-77
2022/11/24 00:24:51;;;;;;;25.77;9.37;;;7.20;99.90;;;;;;4972364;28;20781;-76
2022/11/24 00:27:17;;;;;;;22.05;8.18;;;7.10;99.90;;;;;;4991137;28;20449;-77
2022/11/24 00:29:43;;;;;;;24.67;9.02;;;7.10;99.90;;;;;;4981813;28;20420;-77
2022/11/24 00:32:09;;;;;;;26.65;9.32;;;7.20;99.90;;;;;;4971113;28;20415;-76
2022/11/24 00:34:34;;;;;;;21.47;8.50;;;7.00;99.90;;;;;;4953248;28;20452;-76
2022/11/24 00:37:00;;;;;;;28.43;9.23;;;7.10;99.90;;;;;;4970915;28;20424;-75
2022/11/24 00:39:26;;;;;;;21.03;7.47;;;7.10;99.90;;;;;;4969580;28;20484;-76
2022/11/24 00:41:52;;;;;;;24.95;7.95;;;7.00;99.90;;;;;;4971621;28;20039;-76
2022/11/24 00:44:17;;;;;;;23.25;8.18;;;7.20;99.90;;;;;;4954143;28;20481;-76
2022/11/24 00:46:43;;;;;;;28.02;8.13;;;7.10;99.90;;;;;;4971563;28;20049;-76
2022/11/24 00:49:09;;;;;;;21.88;7.88;;;6.90;99.90;;;;;;4954228;28;20070;-76
2022/11/24 00:51:55;;;;;;;24.77;8.45;;;7.00;99.90;;;;;;4953819;28;20054;-80
2022/11/24 00:54:31;;;;;;;27.15;8.68;;;7.00;99.90;;;;;;4965445;28;20046;-77
2022/11/24 00:57:00;;;;;;;30.60;8.05;;;7.00;99.90;;;;;;4954203;28;20047;-76
2022/11/24 00:59:26;;;;;;;26.35;7.47;;;6.80;99.90;;;;;;4978275;28;20377;-76
2022/11/24 01:01:52;;;;;;;26.70;8.57;;;7.00;99.90;;;;;;4991067;28;20493;-77
2022/11/24 01:04:40;;;;;;;24.42;7.63;;;7.00;99.90;;;;;;4991157;28;20053;-78
2022/11/24 01:07:32;;;;;;;29.25;8.10;;;6.90;99.90;;;;;;4975437;28;20098;-76
2022/11/24 01:09:57;;;;;;;35.90;10.87;;;6.90;99.90;;;;;;4990306;28;20038;-76
2022/11/24 01:12:23;;;;;;;28.33;7.40;;;7.00;99.90;;;;;;4990879;28;20425;-77
2022/11/24 01:14:49;;;;;;;27.35;7.35;;;6.90;99.90;;;;;;4991374;28;20043;-76
2022/11/24 01:17:14;;;;;;;19.52;5.90;;;6.70;99.90;;;;;;4991307;28;20129;-76
2022/11/24 01:19:40;;;;;;;24.25;9.35;;;7.00;99.90;;;;;;4991154;28;20042;-76
2022/11/24 01:22:06;;;;;;;32.13;8.65;;;7.10;99.90;;;;;;4991367;28;20046;-76
2022/11/24 01:24:32;;;;;;;49.80;8.88;;;7.10;99.90;;;;;;4988919;28;20413;-75
2022/11/24 01:26:58;;;;;;;28.63;7.43;;;6.90;99.90;;;;;;4990830;28;20077;-76
2022/11/24 01:29:24;;;;;;;31.00;8.77;;;6.90;99.90;;;;;;4989870;28;20117;-75
2022/11/24 01:31:50;;;;;;;24.58;7.57;;;7.10;99.90;;;;;;4979145;28;20047;-76
2022/11/24 01:34:16;;;;;;;20.60;6.85;;;7.00;99.90;;;;;;4971285;28;20134;-75
2022/11/24 01:36:42;;;;;;;28.50;6.78;;;7.10;99.90;;;;;;4970771;28;20074;-75
2022/11/24 01:39:08;;;;;;;27.20;8.65;;;6.90;99.90;;;;;;4970201;28;20046;-76
2022/11/24 01:41:34;;;;;;;23.02;7.20;;;6.90;99.90;;;;;;4970834;28;20527;-76
2022/11/24 01:44:00;;;;;;;28.58;9.15;;;7.00;99.90;;;;;;4971026;28;20486;-75
2022/11/24 01:46:44;;;;;;;24.52;5.95;;;7.10;99.90;;;;;;4970680;28;20042;-76
2022/11/24 01:49:21;;;;;;;23.85;6.28;;;7.00;99.90;;;;;;4953646;28;20462;-76
2022/11/24 01:52:02;;;;;;;36.00;9.73;;;7.00;99.90;;;;;;4971433;28;20055;-76
2022/11/24 01:54:36;;;;;;;26.08;7.15;;;7.30;99.90;;;;;;4953082;28;20109;-76
2022/11/24 01:57:28;;;;;;;26.50;8.50;;;7.10;99.90;;;;;;4970950;28;20142;-76
2022/11/24 02:00:03;;;;;;;34.22;7.78;;;7.30;99.90;;;;;;4978992;28;20466;-76
2022/11/24 02:02:29;;;;;;;24.23;5.50;;;7.30;99.90;;;;;;4990378;28;20413;-77
2022/11/24 02:04:59;;;;;;;24.40;6.53;;;7.10;99.90;;;;;;4989948;28;20042;-76
2022/11/24 02:07:25;;;;;;;25.85;7.15;;;7.20;99.90;;;;;;4990123;28;20054;-75
2022/11/24 02:09:56;;;;;;;27.13;6.30;;;7.40;99.90;;;;;;4988943;28;20096;-76
2022/11/24 02:12:25;;;;;;;28.80;7.90;;;7.50;99.90;;;;;;4989706;28;20057;-75
2022/11/24 02:14:52;;;;;;;27.83;7.45;;;7.40;99.90;;;;;;4972049;28;20375;-76
2022/11/24 02:17:18;;;;;;;29.80;6.03;;;7.40;99.90;;;;;;4989845;28;20069;-78
2022/11/24 02:19:56;;;;;;;29.05;6.82;;;7.20;99.90;;;;;;4990053;28;20050;-75
2022/11/24 02:22:46;;;;;;;41.85;6.03;;;7.30;99.90;;;;;;4989887;28;20058;-75
2022/11/24 02:25:49;;;;;;;16.83;6.15;;;7.20;99.90;;;;;;4989209;28;20081;-76
2022/11/24 02:28:19;;;;;;;27.42;6.15;;;7.30;99.90;;;;;;4990576;28;20042;-75
2022/11/24 02:30:46;;;;;;;33.00;5.97;;;7.00;99.90;;;;;;4989855;28;20038;-76
2022/11/24 02:33:12;;;;;;;54.15;8.32;;;7.00;99.90;;;;;;4989700;28;20072;-76
2022/11/24 02:35:39;;;;;;;19.13;5.05;;;7.00;99.90;;;;;;4989508;28;20046;-77
2022/11/24 02:38:05;;;;;;;24.52;6.20;;;6.90;99.90;;;;;;4989036;28;20464;-77
2022/11/24 02:40:30;;;;;;;36.38;6.53;;;7.10;99.90;;;;;;4971749;28;20121;-75
2022/11/24 02:43:11;;;;;;;24.50;5.22;;;7.20;99.90;;;;;;4989269;28;20042;-76
2022/11/24 02:45:36;;;;;;;;;;;7.00;99.90;;;;;;4990393;28;20077;-76
2022/11/24 02:48:02;;;;;;;24.58;6.15;;;7.30;99.90;;;;;;4988984;28;20288;-76
2022/11/24 02:50:28;;;;;;;14.35;3.88;;;7.20;99.90;;;;;;4989275;28;20058;-76
2022/11/24 02:52:54;;;;;;;29.02;7.13;;;7.20;99.90;;;;;;4989453;28;20493;-77
2022/11/24 02:55:20;;;;;;;21.88;5.15;;;7.40;99.90;;;;;;4971048;28;20119;-76
2022/11/24 02:57:46;;;;;;;34.65;7.90;;;7.40;99.90;;;;;;4989650;28;20092;-75
2022/11/24 03:00:12;;;;;;;35.13;7.10;;;7.40;99.90;;;;;;4988883;28;20374;-76
2022/11/24 03:02:39;;;;;;;22.40;5.40;;;7.50;99.90;;;;;;4988851;28;20057;-78
2022/11/24 03:05:05;;;;;;;29.67;6.75;;;7.50;99.90;;;;;;4989408;28;20046;-77
2022/11/24 03:07:31;;;;;;;26.67;6.78;;;7.30;99.90;;;;;;4988997;28;20050;-76
2022/11/24 03:09:57;;;;;;;24.88;6.57;;;7.50;99.90;;;;;;4988091;28;20057;-75
2022/11/24 03:12:23;;;;;;;22.30;5.47;;;7.30;99.90;;;;;;4989198;28;20069;-77
2022/11/24 03:14:48;;;;;;;22.35;4.97;;;7.30;99.90;;;;;;4989247;28;20042;-75
2022/11/24 03:17:14;;;;;;;27.00;6.30;;;7.30;99.90;;;;;;4971895;28;20133;-75
2022/11/24 03:19:40;;;;;;;38.30;6.45;;;7.20;99.90;;;;;;4981249;28;20043;-76
2022/11/24 03:22:05;;;;;;;38.78;7.97;;;7.20;99.90;;;;;;4969594;28;20057;-75
2022/11/24 03:24:31;;;;;;;25.27;5.47;;;7.20;99.90;;;;;;4968713;28;20125;-76
2022/11/24 03:26:57;;;;;;;38.75;8.18;;;7.40;99.90;;;;;;4969903;28;20410;-76
2022/11/24 03:29:23;;;;;;;17.98;5.40;;;7.40;99.90;;;;;;4969321;28;20079;-77
2022/11/24 03:31:48;;;;;;;15.35;4.95;;;7.30;99.90;;;;;;4968715;28;20502;-77
2022/11/24 03:34:14;;;;;;;26.38;5.53;;;7.10;99.90;;;;;;4970028;28;20799;-77
2022/11/24 03:36:40;;;;;;;24.30;4.28;;;7.40;99.90;;;;;;4968791;28;20493;-75
2022/11/24 03:39:06;;;;;;;18.52;4.50;;;7.40;99.90;;;;;;4968754;28;20135;-75
2022/11/24 03:41:31;;;;;;;20.42;5.15;;;7.40;99.90;;;;;;4969607;28;20105;-76
2022/11/24 03:43:57;;;;;;;30.98;5.40;;;7.10;99.90;;;;;;4969224;28;20109;-77
2022/11/24 03:46:23;;;;;;;25.25;6.80;;;7.30;99.90;;;;;;4968877;28;20133;-77
2022/11/24 03:48:49;;;;;;;36.35;7.75;;;7.30;99.90;;;;;;4969501;28;20058;-76
2022/11/24 03:51:14;;;;;;;25.63;5.82;;;7.10;99.90;;;;;;4969484;28;20473;-76
2022/11/24 03:53:40;;;;;;;23.58;5.10;;;7.10;99.90;;;;;;4968017;28;20058;-75
2022/11/24 03:56:06;;;;;;;23.17;5.25;;;7.20;99.90;;;;;;4968738;28;20057;-76
2022/11/24 03:58:32;;;;;;;28.92;5.13;;;7.00;99.90;;;;;;4968950;28;20041;-77
2022/11/24 04:00:58;;;;;;;27.17;5.20;;;7.10;99.90;;;;;;4969034;28;20078;-75
2022/11/24 04:03:24;;;;;;;17.15;3.70;;;7.10;99.90;;;;;;4969188;28;20046;-76
2022/11/24 04:05:51;;;;;;;18.67;4.70;;;6.90;99.90;;;;;;4968741;28;20066;-76
2022/11/24 04:08:17;;;;;;;32.25;6.47;;;7.20;99.90;;;;;;4968680;28;20051;-74
2022/11/24 04:10:43;;;;;;;26.88;5.13;;;7.00;99.90;;;;;;4969376;28;20577;-75
2022/11/24 04:13:14;;;;;;;17.40;3.97;;;7.10;99.90;;;;;;4969180;28;20042;-76
2022/11/24 04:15:41;;;;;;;28.45;5.80;;;7.10;99.90;;;;;;4951464;28;20078;-75
2022/11/24 04:18:08;;;;;;;21.20;4.68;;;7.10;99.90;;;;;;4969281;28;20039;-76
2022/11/24 04:20:34;;;;;;;33.55;6.22;;;7.00;99.90;;;;;;4985287;28;20050;-78
2022/11/24 04:23:00;;;;;;;15.95;3.92;;;6.90;99.90;;;;;;4987439;28;20046;-76
2022/11/24 04:25:26;;;;;;;20.10;5.60;;;7.10;99.90;;;;;;4987992;28;20038;-77
2022/11/24 04:27:53;;;;;;;22.23;5.43;;;7.00;99.90;;;;;;4987438;28;20414;-77
2022/11/24 04:30:21;;;;;;;23.27;5.85;;;7.10;99.90;;;;;;4986948;28;20899;-76
2022/11/24 04:32:47;;;;;;;19.90;4.40;;;7.00;99.90;;;;;;4987487;28;20481;-76
2022/11/24 04:35:13;;;;;;;19.35;4.72;;;7.00;99.90;;;;;;4987243;28;20939;-76
2022/11/24 04:37:39;;;;;;;24.57;4.50;;;7.00;99.90;;;;;;4986847;28;20407;-75
2022/11/24 04:40:06;;;;;;;21.57;4.93;;;7.20;99.90;;;;;;4986413;28;20417;-78
2022/11/24 04:42:32;;;;;;;22.45;4.13;;;7.00;99.90;;;;;;4987621;28;20407;-75
2022/11/24 04:44:58;;;;;;;22.77;4.53;;;7.00;99.90;;;;;;4991024;28;20410;-76
2022/11/24 04:47:24;;;;;;;20.30;5.00;;;7.00;99.90;;;;;;4990388;28;20505;-78
2022/11/24 04:49:51;;;;;;;18.35;4.60;;;7.00;99.90;;;;;;4991142;28;20456;-78
2022/11/24 04:52:18;;;;;;;21.63;4.70;;;7.10;99.90;;;;;;4991066;28;20418;-75
2022/11/24 04:54:44;;;;;;;20.03;4.93;;;7.20;99.90;;;;;;4989698;28;20407;-76
2022/11/24 04:57:24;;;;;;;27.15;7.35;;;7.10;99.90;;;;;;4990989;28;20419;-80
2022/11/24 04:59:51;;;;;;;17.90;5.47;;;7.10;99.90;;;;;;4973582;28;20409;-77
2022/11/24 05:02:17;;;;;;;19.93;7.47;;;7.10;99.90;;;;;;4990916;28;20869;-75
2022/11/24 05:04:43;;;;;;;21.85;5.32;;;7.20;99.90;;;;;;4991316;28;20406;-76
2022/11/24 05:07:13;;;;;;;21.95;6.18;;;7.10;99.90;;;;;;4990008;28;20789;-78
2022/11/24 05:10:33;;;;;;;24.25;6.57;;;6.90;99.90;;;;;;4989167;28;20402;-75
2022/11/24 05:12:30;;;;;;;17.90;4.90;;;7.10;99.90;;;;;;4989890;28;20501;-75
2022/11/24 05:15:00;;;;;;;15.93;4.40;;;6.90;99.90;;;;;;4990740;28;20835;-76
2022/11/24 05:17:31;;;;;;;19.35;4.30;;;7.10;99.90;;;;;;4990611;28;21028;-76
2022/11/24 05:19:57;;;;;;;23.10;5.10;;;6.90;99.90;;;;;;4990533;28;20415;-75
2022/11/24 05:22:23;;;;;;;20.47;5.00;;;7.00;99.90;;;;;;4989920;28;20414;-76
2022/11/24 05:24:49;;;;;;;14.90;4.85;;;6.80;99.90;;;;;;4989698;28;20402;-76
2022/11/24 05:27:14;;;;;;;25.30;5.07;;;6.90;99.90;;;;;;4990641;28;20422;-76
2022/11/24 05:29:40;;;;;;;20.23;5.53;;;6.80;99.90;;;;;;4990407;28;20435;-76
2022/11/24 05:32:06;;;;;;;19.37;4.87;;;6.90;99.90;;;;;;4990170;28;20502;-76
2022/11/24 05:34:32;;;;;;;19.65;6.00;;;7.00;99.90;;;;;;4989922;28;20410;-75
2022/11/24 05:37:01;;;;;;;20.42;4.07;;;7.10;99.90;;;;;;4989975;28;20509;-76
2022/11/24 05:39:30;;;;;;;22.58;5.15;;;7.00;99.90;;;;;;4988235;28;20410;-74
2022/11/24 05:41:55;;;;;;;15.85;5.35;;;6.70;99.90;;;;;;4989043;28;20422;-75
2022/11/24 05:44:21;;;;;;;19.50;4.65;;;6.90;99.90;;;;;;4972111;28;20422;-75
2022/11/24 05:46:47;;;;;;;18.60;5.18;;;6.80;99.90;;;;;;4989634;28;20434;-76
2022/11/24 05:49:12;;;;;;;15.82;4.35;;;6.80;99.90;;;;;;4988751;28;21068;-76
2022/11/24 05:51:38;;;;;;;20.60;4.68;;;6.80;99.90;;;;;;4988981;28;20426;-76
2022/11/24 05:54:04;;;;;;;19.60;4.90;;;6.90;99.90;;;;;;4987791;28;20749;-78
2022/11/24 05:56:29;;;;;;;17.53;3.73;;;6.80;99.90;;;;;;4988976;28;20454;-76
2022/11/24 05:58:55;;;;;;;19.60;4.60;;;7.00;99.90;;;;;;4971615;28;20497;-76
2022/11/24 06:01:21;;;;;;;20.47;5.60;;;6.90;99.90;;;;;;4989482;28;20419;-76
2022/11/24 06:03:46;;;;;;;21.73;6.03;;;6.70;99.90;;;;;;4990384;28;20485;-76
2022/11/24 06:06:12;;;;;;;18.60;4.93;;;6.80;99.90;;;;;;4987980;28;20913;-76
2022/11/24 06:08:38;;;;;;;23.65;5.68;;;6.90;99.90;;;;;;4987450;28;20727;-76
2022/11/24 06:11:16;;;;;;;30.65;14.70;;;6.80;99.90;;;;;;4988344;28;20409;-75
2022/11/24 06:13:44;;;;;;;23.70;6.78;;;6.80;99.90;;;;;;4987867;28;20426;-75
2022/11/24 06:16:10;;;;;;;14.38;4.30;;;6.80;99.90;;;;;;4988928;28;20781;-75
2022/11/24 06:18:37;;;;;;;16.02;4.28;;;6.90;99.90;;;;;;4988610;28;20940;-76
2022/11/24 06:21:03;;;;;;;21.38;4.65;;;6.90;99.90;;;;;;4988979;28;20422;-76
2022/11/24 06:23:29;;;;;;;22.27;4.57;;;6.80;99.90;;;;;;4987401;28;20398;-76
2022/11/24 06:26:00;;;;;;;17.98;4.22;;;6.70;99.90;;;;;;4986722;28;20450;-75
2022/11/24 06:28:26;;;;;;;16.88;3.92;;;6.80;99.90;;;;;;4988207;28;20402;-76
2022/11/24 06:30:52;;;;;;;21.25;5.10;;;6.70;99.90;;;;;;4988876;28;20441;-76
2022/11/24 06:33:18;;;;;;;17.58;4.53;;;6.70;99.90;;;;;;4988424;28;20755;-75
2022/11/24 06:35:44;;;;;;;15.50;4.53;;;6.90;99.90;;;;;;4989021;28;20411;-75
2022/11/24 06:38:10;;;;;;;21.23;4.03;;;7.00;99.90;;;;;;4987436;28;20423;-76
2022/11/24 06:40:35;;;;;;;17.63;3.67;;;7.00;99.90;;;;;;4987649;28;20411;-77
2022/11/24 06:43:01;;;;;;;13.57;3.15;;;7.00;99.90;;;;;;4989200;28;20421;-76
2022/11/24 06:45:27;;;;;;;18.60;4.05;;;7.00;99.90;;;;;;4988662;28;20491;-76
2022/11/24 06:47:53;;;;;;;12.00;3.25;;;7.00;99.90;;;;;;4989170;28;20898;-76
2022/11/24 06:50:19;;;;;;;15.52;3.33;;;6.90;99.90;;;;;;4988478;28;20413;-76
2022/11/24 06:52:45;;;;;;;12.43;3.40;;;7.10;99.90;;;;;;4970220;28;20427;-76
2022/11/24 06:55:10;;;;;;;14.30;3.63;;;7.20;99.90;;;;;;4988362;28;20414;-75
2022/11/24 06:57:36;;;;;;;16.43;4.17;;;7.10;99.90;;;;;;4987738;28;20449;-76
2022/11/24 07:00:04;;;;;;;15.60;3.60;;;7.20;99.90;;;;;;4987833;28;20474;-77
2022/11/24 07:02:30;;;;;;;12.68;3.03;;;7.00;99.90;;;;;;4988143;28;20414;-75
2022/11/24 07:04:55;;;;;;;16.30;3.58;;;7.10;99.90;;;;;;4988531;28;20893;-76
2022/11/24 07:07:21;;;;;;;10.13;3.58;;;7.00;99.90;;;;;;4986183;28;20593;-79
2022/11/24 07:09:50;;;;;;;13.93;4.73;;;7.10;99.90;;;;;;4988924;28;20411;-77
2022/11/24 07:12:15;;;;;;;13.35;3.47;;;6.80;99.90;;;;;;4988217;28;20477;-76
2022/11/24 07:14:41;;;;;;;20.90;5.30;;;7.10;99.90;;;;;;4987825;28;20905;-76
2022/11/24 07:17:07;;;;;;;13.67;4.23;;;7.00;99.90;;;;;;4988485;28;20417;-76
2022/11/24 07:19:32;;;;;;;16.77;4.33;;;7.00;99.90;;;;;;4987675;28;20407;-76
2022/11/24 07:21:58;;;;;;;17.02;5.30;;;6.90;99.90;;;;;;4987913;28;20422;-76
2022/11/24 07:24:24;;;;;;;15.50;4.53;;;7.00;99.90;;;;;;4986509;28;20615;-74
2022/11/24 07:26:50;;;;;;;20.77;5.33;;;6.90;99.90;;;;;;4987650;28;21039;-76
2022/11/24 07:29:15;;;;;;;12.57;5.10;;;6.90;99.90;;;;;;4987840;28;20821;-76
2022/11/24 07:31:41;;;;;;;15.47;4.53;;;7.00;99.90;;;;;;4987633;28;20849;-77
2022/11/24 07:34:07;;;;;;;14.40;4.83;;;6.80;99.90;;;;;;4970411;28;20773;-75
2022/11/24 07:36:32;;;;;;;19.40;5.80;;;6.90;99.90;;;;;;4981306;28;20430;-76
2022/11/24 07:38:58;;;;;;;16.10;4.57;;;6.80;99.90;;;;;;4967354;28;20416;-74
2022/11/24 07:41:24;;;;;;;14.50;5.60;;;7.00;99.90;;;;;;4968320;28;20496;-75
2022/11/24 07:43:50;;;;;;;16.13;4.60;;;6.80;99.90;;;;;;4968175;28;20419;-75
2022/11/24 07:46:18;;;;;;;16.85;4.95;;;6.80;99.90;;;;;;4968227;28;20937;-76
2022/11/24 07:48:44;;;;;;;18.67;5.00;;;6.90;99.90;;;;;;4968747;28;20408;-76
2022/11/24 07:51:10;;;;;;;19.90;5.20;;;7.00;99.90;;;;;;4968066;28;20495;-75
2022/11/24 07:53:36;;;;;;;18.87;6.07;;;7.00;99.90;;;;;;4966918;28;20995;-76
2022/11/24 07:56:05;;;;;;;14.45;4.38;;;7.10;99.90;;;;;;4968624;28;20427;-76
2022/11/24 07:58:33;;;;;;;16.33;5.38;;;6.90;99.90;;;;;;4935093;28;20416;-76
2022/11/24 08:01:09;;;;;;;15.75;5.88;;;6.90;99.90;;;;;;4968220;28;20422;-77
2022/11/24 08:03:34;;;;;;;17.00;5.70;;;7.10;99.90;;;;;;4967758;28;20404;-75
2022/11/24 08:06:00;;;;;;;12.87;5.10;;;6.90;99.90;;;;;;4970738;28;20544;-75
2022/11/24 08:08:27;;;;;;;15.70;5.47;;;7.20;99.90;;;;;;4967362;28;20427;-75
2022/11/24 08:10:52;;;;;;;19.60;5.78;;;7.10;99.90;;;;;;4968087;28;20416;-77
2022/11/24 08:13:19;;;;;;;17.45;4.75;;;7.10;99.90;;;;;;4967608;28;20470;-76
2022/11/24 08:15:44;;;;;;;16.95;5.03;;;7.10;99.90;;;;;;4968758;28;20424;-76
2022/11/24 08:18:10;;;;;;;21.83;5.55;;;7.10;99.90;;;;;;4969259;28;20424;-76
2022/11/24 08:20:36;;;;;;;16.50;5.57;;;7.00;99.90;;;;;;4971925;28;20419;-75
2022/11/24 08:23:02;;;;;;;10.77;4.28;;;7.10;99.90;;;;;;4970875;28;20416;-76
2022/11/24 08:25:32;;;;;;;14.57;5.70;;;7.20;99.90;;;;;;4971219;28;20846;-75
2022/11/24 08:28:02;;;;;;;17.95;4.80;;;7.10;99.90;;;;;;4971497;28;20423;-76
2022/11/24 08:30:29;;;;;;;15.48;4.80;;;7.20;99.90;;;;;;4971482;28;20404;-77
2022/11/24 08:32:59;;;;;;;12.98;4.88;;;7.10;99.90;;;;;;4971224;28;20407;-76
2022/11/24 08:35:24;;;;;;;14.82;4.80;;;7.20;99.90;;;;;;4953468;28;20419;-76
2022/11/24 08:37:50;;;;;;;15.77;5.10;;;7.10;99.90;;;;;;4971093;28;20422;-77
2022/11/24 08:40:16;;;;;;;15.32;4.43;;;7.20;99.90;;;;;;4990231;28;20770;-78
2022/11/24 08:42:41;;;;;;;15.65;5.03;;;7.40;99.90;;;;;;4990668;28;20406;-75
2022/11/24 08:45:07;;;;;;;14.25;5.38;;;7.40;99.90;;;;;;4990799;28;20494;-75
2022/11/24 08:47:33;;;;;;;13.23;5.10;;;7.40;99.90;;;;;;4973281;28;20415;-76
2022/11/24 08:49:59;;;;;;;15.23;4.78;;;7.40;99.90;;;;;;4990666;28;20754;-77
2022/11/24 08:52:25;;;;;;;14.93;4.43;;;7.70;99.90;;;;;;4971889;28;20422;-75
2022/11/24 08:54:50;;;;;;;12.07;4.05;;;7.70;99.90;;;;;;4990785;28;20489;-76
2022/11/24 08:57:16;;;;;;;11.13;4.03;;;7.70;99.90;;;;;;4990892;28;20422;-76
2022/11/24 08:59:42;;;;;;;9.55;3.97;;;7.90;99.90;;;;;;4990907;28;20409;-76
2022/11/24 09:02:12;;;;;;;10.23;4.13;;;8.00;99.90;;;;;;4990592;28;20422;-76
2022/11/24 09:04:38;;;;;;;11.07;3.75;;;8.00;99.90;;;;;;4989963;28;20430;-76
2022/11/24 09:07:04;;;;;;;11.48;3.80;;;7.90;99.90;;;;;;4974841;28;20523;-75
2022/11/24 09:09:30;;;;;;;12.35;4.75;;;7.90;99.90;;;;;;4970832;28;20511;-76
2022/11/24 09:11:55;;;;;;;11.07;3.35;;;8.00;99.90;;;;;;4970901;28;20515;-76
2022/11/24 09:14:21;;;;;;;9.07;2.75;;;8.00;99.90;;;;;;4970819;28;20764;-77
2022/11/24 09:16:47;;;;;;;8.48;3.38;;;8.10;99.90;;;;;;4970866;28;20492;-76
2022/11/24 09:19:12;;;;;;;10.95;2.70;;;8.20;99.90;;;;;;4970968;28;21063;-76
2022/11/24 09:21:38;;;;;;;10.95;2.97;;;8.30;99.90;;;;;;4969547;28;20768;-75
2022/11/24 09:24:06;;;;;;;10.05;3.13;;;8.30;99.90;;;;;;4969899;28;20478;-76
2022/11/24 09:26:34;;;;;;;8.38;2.47;;;8.30;99.90;;;;;;4970294;28;20447;-77
2022/11/24 09:29:01;;;;;;;8.43;2.42;;;8.30;99.90;;;;;;4970050;28;20986;-76
2022/11/24 09:31:30;;;;;;;5.40;2.42;;;8.40;99.90;;;;;;4970127;28;20555;-77
2022/11/24 09:33:56;;;;;;;8.18;2.58;;;8.30;99.90;;;;;;4970411;28;20447;-76
2022/11/24 09:36:23;;;;;;;8.40;2.65;;;8.40;99.90;;;;;;4970269;28;20416;-75
2022/11/24 09:38:49;;;;;;;9.38;2.90;;;8.30;99.90;;;;;;4969253;28;20419;-77
2022/11/24 09:41:23;;;;;;;7.57;1.88;;;8.30;99.90;;;;;;4970485;28;20416;-76
2022/11/24 09:44:17;;;;;;;12.07;3.05;;;8.50;99.90;;;;;;4970988;28;20401;-76
2022/11/24 09:47:15;;;;;;;5.82;2.15;;;8.50;99.90;;;;;;4969971;28;20519;-76
2022/11/24 09:50:01;;;;;;;8.60;2.22;;;8.50;99.90;;;;;;4952684;28;20420;-76
2022/11/24 09:53:00;;;;;;;8.47;2.50;;;8.60;99.90;;;;;;4968556;28;20495;-75
2022/11/24 09:55:43;;;;;;;9.73;3.00;;;8.50;99.90;;;;;;4969283;28;20423;-76
2022/11/24 09:58:11;;;;;;;8.93;3.15;;;8.60;99.90;;;;;;4970699;28;20997;-74
2022/11/24 10:00:38;;;;;;;7.95;2.80;;;8.60;99.90;;;;;;4969129;28;20434;-77
2022/11/24 10:03:04;;;;;;;5.65;2.55;;;8.70;99.90;;;;;;4952655;28;20422;-77
2022/11/24 10:05:34;;;;;;;8.60;1.98;;;8.80;99.90;;;;;;4976207;28;20793;-76
2022/11/24 10:08:40;;;;;;;9.93;2.58;;;8.80;99.90;;;;;;4988041;28;20506;-76
2022/11/24 10:11:13;;;;;;;7.18;1.88;;;8.80;99.90;;;;;;4989169;28;20407;-75
2022/11/24 10:14:00;;;;;;;7.05;2.30;;;8.90;99.90;;;;;;4989234;28;20403;-76
2022/11/24 10:16:58;;;;;;;8.65;2.45;;;8.90;99.90;;;;;;4989392;28;20426;-77
2022/11/24 10:19:39;;;;;;;7.80;1.77;;;9.00;99.90;;;;;;4989294;28;20441;-78
2022/11/24 10:22:14;;;;;;;8.25;2.78;;;9.10;99.90;;;;;;4987937;28;20422;-76
2022/11/24 10:25:12;;;;;;;14.10;2.70;;;9.10;99.90;;;;;;4971364;28;20418;-76
2022/11/24 10:28:08;;;;;;;11.25;2.97;;;9.20;99.90;;;;;;4980215;28;20457;-77
2022/11/24 10:30:34;;;;;;;8.68;2.53;;;9.20;99.90;;;;;;4987774;28;20413;-75
2022/11/24 10:33:15;;;;;;;7.80;3.08;;;9.20;99.90;;;;;;4989138;28;20418;-76
2022/11/24 10:35:47;;;;;;;6.50;2.22;;;9.30;99.90;;;;;;4980601;28;20435;-76
2022/11/24 10:38:18;;;;;;;7.68;2.40;;;9.40;99.90;;;;;;4968320;28;20470;-76
2022/11/24 10:40:51;;;;;;;5.60;2.63;;;9.40;99.90;;;;;;4968895;28;20993;-77
2022/11/24 10:43:17;;;;;;;7.35;2.25;;;9.50;99.90;;;;;;4968766;28;20417;-76
2022/11/24 10:45:42;;;;;;;7.38;2.75;;;9.60;99.90;;;;;;4967677;28;20424;-76
2022/11/24 10:48:24;;;;;;;9.13;2.80;;;9.70;99.90;;;;;;4969218;28;20465;-76
2022/11/24 10:50:55;;;;;;;7.95;2.50;;;9.70;99.90;;;;;;4951710;28;20426;-75
2022/11/24 10:53:28;;;;;;;11.55;2.75;;;9.80;99.90;;;;;;4950450;28;20412;-76
2022/11/24 10:55:56;;;;;;;6.07;2.30;;;9.80;99.90;;;;;;4967994;28;20427;-75
2022/11/24 10:58:23;;;;;;;5.82;3.10;;;9.90;99.90;;;;;;4967786;28;20543;-76
2022/11/24 11:00:49;;;;;;;10.05;3.30;;;9.90;99.90;;;;;;4968600;28;20416;-76
2022/11/24 11:03:19;;;;;;;9.17;2.97;;;9.90;99.90;;;;;;4969258;28;20936;-77
2022/11/24 11:05:54;;;;;;;12.40;2.87;;;9.90;99.90;;;;;;4978514;28;20817;-75
2022/11/24 11:08:32;;;;;;;11.75;3.80;;;10.00;99.90;;;;;;4986611;28;20426;-76
2022/11/24 11:11:21;;;;;;;11.07;2.15;;;10.00;99.90;;;;;;4970875;28;20431;-77
2022/11/24 11:13:51;;;;;;;9.02;2.67;;;10.00;99.90;;;;;;4988977;28;20449;-77
2022/11/24 11:16:31;;;;;;;8.00;3.05;;;10.00;99.90;;;;;;4989079;28;20414;-78
2022/11/24 11:18:57;;;;;;;11.10;3.42;;;10.10;99.90;;;;;;4987722;28;20434;-76
2022/11/24 11:21:38;;;;;;;13.10;3.10;;;10.20;99.90;;;;;;4986774;28;20921;-75
2022/11/24 11:24:13;;;;;;;8.02;2.50;;;10.20;99.90;;;;;;4987327;28;20429;-75
2022/11/24 11:26:41;;;;;;;11.57;2.93;;;10.10;99.90;;;;;;4987414;28;20437;-76
2022/11/24 11:29:06;;;;;;;9.77;2.83;;;10.10;99.90;;;;;;4987571;28;20410;-76
2022/11/24 11:31:34;;;;;;;10.77;3.17;;;10.20;99.90;;;;;;4987154;28;20410;-76
2022/11/24 11:34:09;;;;;;;10.10;2.40;;;10.20;99.90;;;;;;4987258;28;20408;-75
2022/11/24 11:36:52;;;;;;;8.60;3.30;;;10.40;99.90;;;;;;4986301;28;20421;-77
2022/11/24 11:39:35;;;;;;;7.88;2.42;;;10.30;99.90;;;;;;4986753;28;20481;-77
2022/11/24 11:42:14;;;;;;;10.40;3.00;;;10.30;99.90;;;;;;4987162;28;20489;-76
2022/11/24 11:44:59;;;;;;;10.30;3.13;;;10.40;99.90;;;;;;4987055;28;20417;-76
2022/11/24 11:47:45;;;;;;;11.70;3.05;;;10.30;99.90;;;;;;4969372;28;20514;-76
2022/11/24 11:50:16;;;;;;;9.77;3.28;;;10.40;99.90;;;;;;4969658;28;20786;-76
2022/11/24 11:53:23;;;;;;;8.55;2.60;;;10.40;99.90;;;;;;4985652;28;20417;-76
2022/11/24 11:55:56;;;;;;;10.40;3.58;;;10.40;99.90;;;;;;4987573;28;20421;-76
2022/11/24 11:58:58;;;;;;;11.52;2.80;;;10.50;99.90;;;;;;4986726;28;20479;-77
2022/11/24 12:01:48;;;;;;;7.40;2.10;;;10.40;99.90;;;;;;4969357;28;20411;-76
2022/11/24 12:04:40;;;;;;;12.10;3.63;;;10.50;99.90;;;;;;4988008;28;20456;-77
2022/11/24 12:07:36;;;;;;;11.63;3.20;;;10.50;99.90;;;;;;4952821;28;20481;-76
2022/11/24 12:10:32;;;;;;;9.60;2.20;;;10.50;99.90;;;;;;4987351;28;20402;-77
2022/11/24 12:13:07;;;;;;;10.93;3.13;;;10.70;99.90;;;;;;4987990;28;20979;-77
2022/11/24 12:15:44;;;;;;;9.00;3.20;;;10.80;99.90;;;;;;4969998;28;20411;-76
2022/11/24 12:18:39;;;;;;;12.70;3.25;;;10.80;99.90;;;;;;4987192;28;20801;-76
2022/11/24 12:21:28;;;;;;;13.00;4.25;;;10.80;99.90;;;;;;4978790;28;20454;-76
2022/11/24 12:24:30;;;;;;;9.30;2.97;;;10.80;99.90;;;;;;4987569;28;20487;-77
2022/11/24 12:27:11;;;;;;;14.15;3.95;;;10.80;99.90;;;;;;4986777;28;20461;-76
2022/11/24 12:30:02;;;;;;;12.32;3.17;;;11.00;99.90;;;;;;4987270;28;20414;-76
2022/11/24 12:32:46;;;;;;;13.33;3.93;;;11.00;99.90;;;;;;4986955;28;20554;-76
2022/11/24 12:35:35;;;;;;;12.45;3.75;;;10.90;99.90;;;;;;4982007;28;20456;-80
2022/11/24 12:38:25;;;;;;;15.88;3.83;;;11.00;99.90;;;;;;4966665;28;20419;-76
2022/11/24 12:41:09;;;;;;;10.93;3.20;;;11.00;99.90;;;;;;4967601;28;20408;-76
2022/11/24 12:43:42;;;;;;;18.70;4.90;;;11.00;99.90;;;;;;4966984;28;20499;-77
2022/11/24 12:46:26;;;;;;;15.73;4.30;;;11.00;99.90;;;;;;4967839;28;20443;-77
2022/11/24 12:49:30;;;;;;;15.32;3.03;;;10.90;99.90;;;;;;4967631;28;20871;-75
2022/11/24 12:52:21;;;;;;;13.32;4.20;;;11.00;99.90;;;;;;4960058;28;20860;-77
2022/11/24 12:54:47;;;;;;;15.75;3.40;;;11.10;99.90;;;;;;4968391;28;20494;-76
2022/11/24 12:57:20;;;;;;;10.67;2.50;;;11.10;99.90;;;;;;4967881;28;20995;-75
2022/11/24 13:00:02;;;;;;;12.10;2.93;;;11.00;99.90;;;;;;4968475;28;20631;-77
2022/11/24 13:02:57;;;;;;;11.05;3.42;;;11.10;99.90;;;;;;4967251;28;20412;-76
2022/11/24 13:05:33;;;;;;;14.45;4.78;;;11.10;99.90;;;;;;4981442;28;20433;-76